UTTT/TAS METAR and TAF weather

Enter ICAO airport designator
Station Type Date Time Source
UTTT METAR 2020/07/04 09:00 UTC NOAA

UTTT 040900Z 02012KT CAVOK 32/02 Q1011 R08R/CLRD70 NOSIG


Station Type Date Time Source
UTTT Decoded METAR 2020/07/04 09:00 UTC NOAA

Tashkent, Uzbekistan (UTTT) 41-16N 069-16E 488M
Jul 04, 2020 - 05:00 AM EDT / 2020.07.04 0900 UTC
Wind: from the NNE (020 degrees) at 14 MPH (12 KT):0
Visibility: greater than 7 mile(s):0
Temperature: 89 F (32 C)
Dew Point: 35 F (2 C)
Relative Humidity: 14%
Pressure (altimeter): 29.85 in. Hg (1011 hPa)
ob: UTTT 040900Z 02012KT CAVOK 32/02 Q1011 R08R/CLRD70 NOSIG
cycle: 9

Station Type Date Time Source
UTTT TAF 2020/07/04 06:10 UTC NOAA

TAF UTTT 040500Z 0406/0506 24010KT 7000 NSC
TEMPO 0406/0416 34012G22KT

Example: see airport list